createdAt,value
2017-10-21T00:00:18.785Z,999.56
2017-10-21T00:01:18.754Z,999.53
2017-10-21T00:02:18.776Z,999.54
2017-10-21T00:03:18.735Z,999.53
2017-10-21T00:04:18.729Z,999.55
2017-10-21T00:05:18.713Z,999.59
2017-10-21T00:06:18.700Z,999.57
2017-10-21T00:07:18.700Z,999.60
2017-10-21T00:08:18.698Z,999.59
2017-10-21T00:09:18.659Z,999.57
2017-10-21T00:10:18.652Z,999.58
2017-10-21T00:11:18.772Z,999.60
2017-10-21T00:12:18.615Z,999.60
2017-10-21T00:13:18.624Z,999.63
2017-10-21T00:14:18.591Z,999.63
2017-10-21T00:15:18.594Z,999.62
2017-10-21T00:16:18.569Z,999.57
2017-10-21T00:17:18.627Z,999.66
2017-10-21T00:18:18.554Z,999.61
2017-10-21T00:19:18.542Z,999.66
2017-10-21T00:20:18.527Z,999.65
2017-10-21T00:21:18.511Z,999.67
2017-10-21T00:22:18.493Z,999.70
2017-10-21T00:23:18.572Z,999.67
2017-10-21T00:24:18.475Z,999.66
2017-10-21T00:25:18.455Z,999.67
2017-10-21T00:26:18.460Z,999.63
2017-10-21T00:27:18.428Z,999.64
2017-10-21T00:28:18.427Z,999.65
2017-10-21T00:29:18.437Z,999.61
2017-10-21T00:30:18.410Z,999.68
2017-10-21T00:31:18.394Z,999.69
2017-10-21T00:32:18.377Z,999.70
2017-10-21T00:33:18.403Z,999.75
2017-10-21T00:34:18.342Z,999.74
2017-10-21T00:35:18.331Z,999.73
2017-10-21T00:36:18.327Z,999.75
2017-10-21T00:37:18.313Z,999.76
2017-10-21T00:38:18.345Z,999.77
2017-10-21T00:39:18.276Z,999.77
2017-10-21T00:40:18.276Z,999.76
2017-10-21T00:41:18.251Z,999.74
2017-10-21T00:42:18.235Z,999.79
2017-10-21T00:43:18.236Z,999.78
2017-10-21T00:44:18.289Z,999.79
2017-10-21T00:45:18.208Z,999.67
2017-10-21T00:46:18.202Z,999.69
2017-10-21T00:47:18.176Z,999.72
2017-10-21T00:48:18.179Z,999.71
2017-10-21T00:49:18.145Z,999.69
2017-10-21T00:50:18.175Z,999.68
2017-10-21T00:51:18.135Z,999.70
2017-10-21T00:52:18.125Z,999.73
2017-10-21T00:53:18.138Z,999.68
2017-10-21T00:54:18.124Z,999.66
2017-10-21T00:55:18.093Z,999.66
2017-10-21T00:56:18.066Z,999.69
2017-10-21T00:57:18.057Z,999.62
2017-10-21T00:58:18.174Z,999.65
2017-10-21T00:59:18.030Z,999.61
2017-10-21T01:00:18.022Z,999.64
2017-10-21T01:01:18.009Z,999.59
2017-10-21T01:02:17.993Z,999.63
2017-10-21T01:03:17.971Z,999.60
2017-10-21T01:04:17.995Z,999.62
2017-10-21T01:05:17.951Z,999.61
2017-10-21T01:06:17.944Z,999.59
2017-10-21T01:07:17.930Z,999.61
2017-10-21T01:08:17.924Z,999.62
2017-10-21T01:09:18.036Z,999.61
2017-10-21T01:10:17.888Z,999.63
2017-10-21T01:11:17.876Z,999.62
2017-10-21T01:12:17.862Z,999.65
2017-10-21T01:13:17.852Z,999.67
2017-10-21T01:14:17.835Z,999.68
2017-10-21T01:15:17.895Z,999.65
2017-10-21T01:16:17.811Z,999.66
2017-10-21T01:17:17.795Z,999.64
2017-10-21T01:18:17.790Z,999.65
2017-10-21T01:19:17.765Z,999.71
2017-10-21T01:20:17.760Z,999.58
2017-10-21T01:21:17.778Z,999.62
2017-10-21T01:22:17.736Z,999.70
2017-10-21T01:23:17.802Z,999.76
2017-10-21T01:24:17.715Z,999.74
2017-10-21T01:25:17.698Z,999.76
2017-10-21T01:26:17.678Z,999.73
2017-10-21T01:27:17.670Z,999.72
2017-10-21T01:28:17.657Z,999.73
2017-10-21T01:29:17.994Z,999.71
2017-10-21T01:30:17.629Z,999.73
2017-10-21T01:31:17.616Z,999.76
2017-10-21T01:32:17.600Z,999.77
2017-10-21T01:33:17.591Z,999.74
2017-10-21T01:34:17.573Z,999.70
2017-10-21T01:35:17.845Z,999.70
2017-10-21T01:36:17.555Z,999.70
2017-10-21T01:37:17.539Z,999.69
2017-10-21T01:38:17.522Z,999.69
2017-10-21T01:39:17.509Z,999.67
2017-10-21T01:40:17.498Z,999.70
2017-10-21T01:41:17.631Z,999.68
2017-10-21T01:42:17.475Z,999.62
2017-10-21T01:43:17.468Z,999.62
2017-10-21T01:44:17.446Z,999.60
2017-10-21T01:45:17.436Z,999.56
2017-10-21T01:46:17.439Z,999.56
2017-10-21T01:47:17.837Z,999.59
2017-10-21T01:48:17.390Z,999.58
2017-10-21T01:49:17.381Z,999.58
2017-10-21T01:50:17.369Z,999.57
2017-10-21T01:51:17.353Z,999.56
2017-10-21T01:52:17.346Z,999.58
2017-10-21T01:53:17.400Z,999.59
2017-10-21T01:54:17.321Z,999.56
2017-10-21T01:55:17.314Z,999.53
2017-10-21T01:56:17.292Z,999.49
2017-10-21T01:57:17.279Z,999.50
2017-10-21T01:58:17.268Z,999.52
2017-10-21T01:59:17.296Z,999.49
2017-10-21T02:00:17.252Z,999.54
2017-10-21T02:01:17.258Z,999.53
2017-10-21T02:02:17.217Z,999.55
2017-10-21T02:03:17.202Z,999.53
2017-10-21T02:04:17.185Z,999.54
2017-10-21T02:05:17.177Z,999.50
2017-10-21T02:06:17.524Z,999.48
2017-10-21T02:07:17.146Z,999.54
2017-10-21T02:08:17.139Z,999.56
2017-10-21T02:09:17.125Z,999.59
2017-10-21T02:10:17.111Z,999.58
2017-10-21T02:11:17.109Z,999.55
2017-10-21T02:12:17.149Z,999.53
2017-10-21T02:13:17.080Z,999.55
2017-10-21T02:14:17.058Z,999.56
2017-10-21T02:15:17.048Z,999.63
2017-10-21T02:16:17.029Z,999.55
2017-10-21T02:17:17.026Z,999.58
2017-10-21T02:18:17.052Z,999.59
2017-10-21T02:19:16.996Z,999.65
2017-10-21T02:20:16.980Z,999.62
2017-10-21T02:21:16.972Z,999.64
2017-10-21T02:22:17.097Z,999.62
2017-10-21T02:23:16.945Z,999.62
2017-10-21T02:24:16.934Z,999.62
2017-10-21T02:25:16.920Z,999.62
2017-10-21T02:26:16.909Z,999.64
2017-10-21T02:27:16.895Z,999.63
2017-10-21T02:28:17.234Z,999.62
2017-10-21T02:29:16.866Z,999.60
2017-10-21T02:30:16.855Z,999.60
2017-10-21T02:31:16.853Z,999.62
2017-10-21T02:32:16.829Z,999.57
2017-10-21T02:33:16.813Z,999.60
2017-10-21T02:34:16.950Z,999.57
2017-10-21T02:35:16.785Z,999.56
2017-10-21T02:36:16.781Z,999.57
2017-10-21T02:37:16.769Z,999.54
2017-10-21T02:38:16.756Z,999.54
2017-10-21T02:39:16.734Z,999.53
2017-10-21T02:40:16.781Z,999.47
2017-10-21T02:41:16.712Z,999.47
2017-10-21T02:42:16.699Z,999.49
2017-10-21T02:43:16.686Z,999.48
2017-10-21T02:44:16.678Z,999.42
2017-10-21T02:45:16.655Z,999.43
2017-10-21T02:46:16.716Z,999.45
2017-10-21T02:47:16.631Z,999.45
2017-10-21T02:48:16.624Z,999.42
2017-10-21T02:49:16.610Z,999.43
2017-10-21T02:50:16.597Z,999.42
2017-10-21T02:51:16.583Z,999.43
2017-10-21T02:52:16.732Z,999.44
2017-10-21T02:53:16.552Z,999.45
2017-10-21T02:54:16.547Z,999.45
2017-10-21T02:55:16.529Z,999.47
2017-10-21T02:56:16.522Z,999.48
2017-10-21T02:57:16.503Z,999.48
2017-10-21T02:58:16.526Z,999.48
2017-10-21T02:59:16.477Z,999.54
2017-10-21T03:00:16.478Z,999.51
2017-10-21T03:01:16.809Z,999.53
2017-10-21T03:02:16.453Z,999.58
2017-10-21T03:03:16.439Z,999.54
2017-10-21T03:04:16.415Z,999.56
2017-10-21T03:05:16.405Z,999.51
2017-10-21T03:06:16.393Z,999.49
2017-10-21T03:07:16.517Z,999.49
2017-10-21T03:08:16.383Z,999.51
2017-10-21T03:09:16.365Z,999.47
2017-10-21T03:10:16.345Z,999.47
2017-10-21T03:11:16.324Z,999.52
2017-10-21T03:12:16.327Z,999.51
2017-10-21T03:13:16.383Z,999.48
2017-10-21T03:14:16.297Z,999.48
2017-10-21T03:15:16.282Z,999.45
2017-10-21T03:16:16.261Z,999.48
2017-10-21T03:17:16.254Z,999.42
2017-10-21T03:18:16.246Z,999.41
2017-10-21T03:19:16.258Z,999.42
2017-10-21T03:20:16.212Z,999.39
2017-10-21T03:21:16.198Z,999.38
2017-10-21T03:22:16.540Z,999.41
2017-10-21T03:23:16.182Z,999.37
2017-10-21T03:24:16.163Z,999.37
2017-10-21T03:25:16.151Z,999.36
2017-10-21T03:26:16.143Z,999.32
2017-10-21T03:27:16.126Z,999.35
2017-10-21T03:28:16.179Z,999.29
2017-10-21T03:29:16.099Z,999.31
2017-10-21T03:30:16.097Z,999.32
2017-10-21T03:31:16.073Z,999.32
2017-10-21T03:32:16.066Z,999.33
2017-10-21T03:33:16.050Z,999.31
2017-10-21T03:34:16.119Z,999.27
2017-10-21T03:35:16.025Z,999.27
2017-10-21T03:36:16.009Z,999.24
2017-10-21T03:37:16.013Z,999.28
2017-10-21T03:38:15.989Z,999.23
2017-10-21T03:39:15.969Z,999.22
2017-10-21T03:40:16.000Z,999.25
2017-10-21T03:41:15.941Z,999.19
2017-10-21T03:42:15.942Z,999.22
2017-10-21T03:43:16.046Z,999.22
2017-10-21T03:44:15.906Z,999.22
2017-10-21T03:45:15.896Z,999.19
2017-10-21T03:46:15.877Z,999.22
2017-10-21T03:47:15.871Z,999.24
2017-10-21T03:48:15.864Z,999.24
2017-10-21T03:49:15.984Z,999.26
2017-10-21T03:50:15.828Z,999.29
2017-10-21T03:51:15.824Z,999.27
2017-10-21T03:52:15.811Z,999.30
2017-10-21T03:53:15.793Z,999.24
2017-10-21T03:54:15.779Z,999.25
2017-10-21T03:55:15.841Z,999.23
2017-10-21T03:56:15.751Z,999.24
2017-10-21T03:57:15.743Z,999.24
2017-10-21T03:58:15.735Z,999.25
2017-10-21T03:59:15.724Z,999.26
2017-10-21T04:00:15.710Z,999.25
2017-10-21T04:01:15.890Z,999.26
2017-10-21T04:02:15.676Z,999.29
2017-10-21T04:03:15.669Z,999.25
2017-10-21T04:04:15.655Z,999.23
2017-10-21T04:05:15.640Z,999.22
2017-10-21T04:06:15.637Z,999.25
2017-10-21T04:07:15.756Z,999.28
2017-10-21T04:08:15.614Z,999.23
2017-10-21T04:09:15.595Z,999.23
2017-10-21T04:10:15.578Z,999.22
2017-10-21T04:11:15.570Z,999.23
2017-10-21T04:12:15.557Z,999.23
2017-10-21T04:13:15.887Z,999.22
2017-10-21T04:14:15.526Z,999.19
2017-10-21T04:15:15.517Z,999.24
2017-10-21T04:16:15.505Z,999.24
2017-10-21T04:17:15.492Z,999.26
2017-10-21T04:18:15.478Z,999.25
2017-10-21T04:19:15.604Z,999.23
2017-10-21T04:20:15.453Z,999.26
2017-10-21T04:21:15.441Z,999.23
2017-10-21T04:22:15.425Z,999.16
2017-10-21T04:23:15.409Z,999.09
2017-10-21T04:24:15.402Z,999.08
2017-10-21T04:25:15.443Z,999.11
2017-10-21T04:26:15.381Z,999.07
2017-10-21T04:27:15.361Z,999.03
2017-10-21T04:28:15.351Z,998.98
2017-10-21T04:29:15.337Z,998.95
2017-10-21T04:30:15.323Z,998.96
2017-10-21T04:31:15.444Z,999.06
2017-10-21T04:32:15.302Z,999.13
2017-10-21T04:33:15.293Z,999.12
2017-10-21T04:34:15.281Z,999.17
2017-10-21T04:35:15.260Z,999.11
2017-10-21T04:36:15.250Z,999.11
2017-10-21T04:37:15.290Z,999.13
2017-10-21T04:38:15.226Z,999.08
2017-10-21T04:39:15.209Z,999.07
2017-10-21T04:40:15.204Z,999.08
2017-10-21T04:41:15.188Z,999.08
2017-10-21T04:42:15.182Z,999.09
2017-10-21T04:43:15.217Z,999.02
2017-10-21T04:44:15.152Z,999.04
2017-10-21T04:45:15.138Z,999.08
2017-10-21T04:46:15.121Z,999.06
2017-10-21T04:47:15.110Z,999.09
2017-10-21T04:48:15.119Z,999.09
2017-10-21T04:49:15.232Z,999.08
2017-10-21T04:50:15.074Z,999.08
2017-10-21T04:51:15.061Z,999.05
2017-10-21T04:52:15.052Z,999.09
2017-10-21T04:53:15.035Z,999.11
2017-10-21T04:54:15.022Z,999.11
2017-10-21T04:55:15.071Z,999.07
2017-10-21T04:56:14.999Z,999.09
2017-10-21T04:57:14.988Z,999.06
2017-10-21T04:58:15.301Z,999.07
2017-10-21T04:59:14.959Z,999.02
2017-10-21T05:00:14.941Z,999.07
2017-10-21T05:01:14.978Z,999.10
2017-10-21T05:02:14.921Z,999.10
2017-10-21T05:03:14.907Z,999.14
2017-10-21T05:04:14.892Z,999.16
2017-10-21T05:05:14.881Z,999.16
2017-10-21T05:06:15.019Z,999.10
2017-10-21T05:07:14.858Z,999.15
2017-10-21T05:08:14.845Z,999.13
2017-10-21T05:09:14.833Z,999.10
2017-10-21T05:10:14.823Z,999.13
2017-10-21T05:11:14.811Z,999.09
2017-10-21T05:12:14.832Z,999.11
2017-10-21T05:13:14.787Z,999.11
2017-10-21T05:14:14.775Z,999.10
2017-10-21T05:15:14.758Z,999.08
2017-10-21T05:16:14.873Z,999.07
2017-10-21T05:17:14.738Z,999.00
2017-10-21T05:18:14.725Z,999.04
2017-10-21T05:19:14.702Z,999.02
2017-10-21T05:20:14.696Z,999.02
2017-10-21T05:21:14.680Z,999.05
2017-10-21T05:22:14.711Z,999.06
2017-10-21T05:23:14.650Z,999.04
2017-10-21T05:24:14.649Z,999.04
2017-10-21T05:25:14.629Z,999.03
2017-10-21T05:26:14.677Z,999.03
2017-10-21T05:27:14.615Z,999.08
2017-10-21T05:28:14.589Z,999.02
2017-10-21T05:29:14.580Z,998.98
2017-10-21T05:30:14.569Z,999.01
2017-10-21T05:31:14.561Z,998.98
2017-10-21T05:32:14.676Z,998.99
2017-10-21T05:33:14.535Z,998.96
2017-10-21T05:34:14.524Z,998.98
2017-10-21T05:35:14.502Z,998.96
2017-10-21T05:36:14.513Z,998.94
2017-10-21T05:37:14.475Z,998.95
2017-10-21T05:38:14.498Z,998.94
2017-10-21T05:39:14.452Z,998.89
2017-10-21T05:40:14.862Z,998.89
2017-10-21T05:41:14.438Z,998.85
2017-10-21T05:42:14.416Z,998.83
2017-10-21T05:43:14.403Z,998.79
2017-10-21T05:44:14.389Z,998.76
2017-10-21T05:45:14.375Z,998.77
2017-10-21T05:46:14.800Z,998.76
2017-10-21T05:47:14.356Z,998.76
2017-10-21T05:48:14.341Z,998.71
2017-10-21T05:49:14.329Z,998.73
2017-10-21T05:50:14.315Z,998.69
2017-10-21T05:51:14.306Z,998.67
2017-10-21T05:52:14.498Z,998.69
2017-10-21T05:53:14.280Z,998.68
2017-10-21T05:54:14.263Z,998.66
2017-10-21T05:55:14.254Z,998.67
2017-10-21T05:56:14.244Z,998.64
2017-10-21T05:57:14.229Z,998.64
2017-10-21T05:58:14.561Z,998.68
2017-10-21T05:59:14.210Z,998.73
2017-10-21T06:00:14.185Z,998.72
2017-10-21T06:01:14.181Z,998.72
2017-10-21T06:02:14.164Z,998.72
2017-10-21T06:03:14.149Z,998.67
2017-10-21T06:04:14.423Z,998.72
2017-10-21T06:05:14.126Z,998.75
2017-10-21T06:06:14.115Z,998.75
2017-10-21T06:07:14.102Z,998.68
2017-10-21T06:08:14.092Z,998.68
2017-10-21T06:09:14.073Z,998.69
2017-10-21T06:10:14.241Z,998.76
2017-10-21T06:11:14.045Z,998.75
2017-10-21T06:12:14.048Z,998.73
2017-10-21T06:13:14.023Z,998.70
2017-10-21T06:14:14.021Z,998.72
2017-10-21T06:15:14.002Z,998.70
2017-10-21T06:16:14.341Z,998.69
2017-10-21T06:17:13.974Z,998.67
2017-10-21T06:18:13.960Z,998.68
2017-10-21T06:19:13.947Z,998.71
2017-10-21T06:20:13.938Z,998.76
2017-10-21T06:21:13.925Z,998.78
2017-10-21T06:22:13.983Z,998.76
2017-10-21T06:23:13.898Z,998.77
2017-10-21T06:24:13.884Z,998.77
2017-10-21T06:25:13.876Z,998.79
2017-10-21T06:26:13.866Z,998.83
2017-10-21T06:27:13.857Z,998.79
2017-10-21T06:28:13.893Z,998.82
2017-10-21T06:29:13.822Z,998.79
2017-10-21T06:30:13.812Z,998.78
2017-10-21T06:31:13.789Z,998.72
2017-10-21T06:32:13.788Z,998.71
2017-10-21T06:33:13.777Z,998.70
2017-10-21T06:34:13.990Z,998.77
2017-10-21T06:35:13.750Z,998.81
2017-10-21T06:36:13.732Z,998.86
2017-10-21T06:37:13.730Z,998.85
2017-10-21T06:38:13.706Z,998.86
2017-10-21T06:39:13.695Z,998.86
2017-10-21T06:40:13.712Z,998.81
2017-10-21T06:41:13.724Z,998.83
2017-10-21T06:42:13.660Z,998.81
2017-10-21T06:43:13.644Z,998.87
2017-10-21T06:44:13.625Z,998.82
2017-10-21T06:45:13.627Z,998.87
2017-10-21T06:46:13.604Z,998.88
2017-10-21T06:47:13.678Z,998.85
2017-10-21T06:48:13.581Z,998.89
2017-10-21T06:49:13.572Z,998.85
2017-10-21T06:50:13.556Z,998.81
2017-10-21T06:51:13.551Z,998.74
2017-10-21T06:52:13.537Z,998.76
2017-10-21T06:53:13.556Z,998.78
2017-10-21T06:54:13.507Z,998.74
2017-10-21T06:55:13.500Z,998.77
2017-10-21T06:56:13.478Z,998.74
2017-10-21T06:57:13.617Z,998.80
2017-10-21T06:58:13.732Z,998.80
2017-10-21T06:59:13.442Z,998.79
2017-10-21T07:00:13.436Z,998.84
2017-10-21T07:01:13.417Z,998.82
2017-10-21T07:02:13.406Z,998.82
2017-10-21T07:03:13.428Z,998.80
2017-10-21T07:04:13.382Z,998.83
2017-10-21T07:05:13.378Z,998.83
2017-10-21T07:06:13.360Z,998.79
2017-10-21T07:07:13.477Z,998.80
2017-10-21T07:08:13.337Z,998.76
2017-10-21T07:09:13.326Z,998.72
2017-10-21T07:10:13.312Z,998.70
2017-10-21T07:11:13.295Z,998.68
2017-10-21T07:12:13.286Z,998.66
2017-10-21T07:13:13.329Z,998.62
2017-10-21T07:14:13.263Z,998.61
2017-10-21T07:15:13.248Z,998.63
2017-10-21T07:16:13.241Z,998.66
2017-10-21T07:17:13.226Z,998.65
2017-10-21T07:18:13.213Z,998.73
2017-10-21T07:19:13.260Z,998.74
2017-10-21T07:20:13.190Z,998.76
2017-10-21T07:21:13.169Z,998.74
2017-10-21T07:22:13.155Z,998.77
2017-10-21T07:23:13.164Z,998.76
2017-10-21T07:24:13.133Z,998.81
2017-10-21T07:25:13.171Z,998.78
2017-10-21T07:26:13.111Z,998.80
2017-10-21T07:27:13.100Z,998.81
2017-10-21T07:28:13.082Z,998.84
2017-10-21T07:29:13.079Z,998.79
2017-10-21T07:30:13.059Z,998.81
2017-10-21T07:31:13.431Z,998.81
2017-10-21T07:32:13.034Z,998.80
2017-10-21T07:33:13.025Z,998.82
2017-10-21T07:34:13.011Z,998.82
2017-10-21T07:35:12.999Z,998.88
2017-10-21T07:36:12.982Z,998.86
2017-10-21T07:37:13.010Z,998.83
2017-10-21T07:38:12.967Z,998.86
2017-10-21T07:39:13.668Z,998.84
2017-10-21T07:40:13.683Z,998.82
2017-10-21T07:41:12.968Z,998.83
2017-10-21T07:42:12.940Z,998.85
2017-10-21T07:43:12.896Z,998.80
2017-10-21T07:44:12.890Z,998.77
2017-10-21T07:45:12.885Z,998.79
2017-10-21T07:46:12.861Z,998.79
2017-10-21T07:47:12.922Z,998.76
2017-10-21T07:48:12.842Z,998.75
2017-10-21T07:49:12.825Z,998.75
2017-10-21T07:50:12.819Z,998.75
2017-10-21T07:51:13.837Z,998.71
2017-10-21T07:52:12.786Z,998.72
2017-10-21T07:53:12.961Z,998.67
2017-10-21T08:01:06.178Z,998.68
2017-10-21T08:02:05.991Z,998.68
2017-10-21T08:08:48.719Z,998.70
2017-10-21T08:12:02.380Z,998.73
2017-10-21T08:13:02.367Z,998.71
2017-10-21T08:14:02.521Z,998.74
2017-10-21T08:15:02.350Z,998.70
2017-10-21T08:16:04.937Z,998.70
2017-10-21T08:17:02.292Z,998.71
2017-10-21T08:18:02.277Z,998.72
2017-10-21T08:19:02.270Z,998.70
2017-10-21T08:20:02.313Z,998.70
2017-10-21T08:21:02.244Z,998.68
2017-10-21T08:22:02.292Z,998.66
2017-10-21T08:29:49.725Z,998.75
2017-10-21T08:30:49.582Z,998.73
2017-10-21T08:31:49.577Z,998.77
2017-10-21T08:32:49.558Z,998.76
2017-10-21T08:33:49.536Z,998.72
2017-10-21T08:34:49.598Z,998.73
2017-10-21T08:35:49.534Z,998.75
2017-10-21T08:36:49.502Z,998.74
2017-10-21T08:37:49.491Z,998.73
2017-10-21T08:38:49.481Z,998.73
2017-10-21T08:39:49.465Z,998.67
2017-10-21T08:40:49.507Z,998.66
2017-10-21T08:41:49.443Z,998.62
2017-10-21T08:42:49.436Z,998.63
2017-10-21T08:43:49.414Z,998.61
2017-10-21T08:44:49.406Z,998.65
2017-10-21T08:45:49.396Z,998.60
2017-10-21T08:46:49.429Z,998.62
2017-10-21T08:47:49.368Z,998.65
2017-10-21T08:48:49.352Z,998.62
2017-10-21T08:49:49.352Z,998.64
2017-10-21T08:50:49.334Z,998.62
2017-10-21T08:51:49.324Z,998.63
2017-10-21T08:52:49.453Z,998.61
2017-10-21T08:53:49.301Z,998.60
2017-10-21T08:54:49.281Z,998.56
2017-10-21T08:55:49.280Z,998.55
2017-10-21T08:56:49.264Z,998.52
2017-10-21T08:57:49.260Z,998.54
2017-10-21T08:58:49.318Z,998.48
2017-10-21T08:59:49.224Z,998.50
2017-10-21T09:00:49.216Z,998.51
2017-10-21T09:01:49.215Z,998.52
2017-10-21T09:02:49.189Z,998.53
2017-10-21T09:03:49.180Z,998.54
2017-10-21T09:04:49.203Z,998.52
2017-10-21T09:05:49.154Z,998.53
2017-10-21T09:06:49.151Z,998.52
2017-10-21T09:07:49.138Z,998.51
2017-10-21T09:08:49.129Z,998.50
2017-10-21T09:09:49.224Z,998.52
2017-10-21T09:10:49.105Z,998.51
2017-10-21T09:11:49.086Z,998.48
2017-10-21T09:12:49.081Z,998.52
2017-10-21T09:13:49.066Z,998.50
2017-10-21T09:14:49.056Z,998.53
2017-10-21T09:15:49.094Z,998.53
2017-10-21T09:16:49.038Z,998.51
2017-10-21T09:17:49.017Z,998.53
2017-10-21T09:18:49.007Z,998.53
2017-10-21T09:19:48.993Z,998.61
2017-10-21T09:20:48.984Z,998.52
2017-10-21T09:21:49.037Z,998.55
2017-10-21T09:22:48.961Z,998.52
2017-10-21T09:23:48.945Z,998.49
2017-10-21T09:24:48.937Z,998.48
2017-10-21T09:25:48.924Z,998.48
2017-10-21T09:26:48.918Z,998.46
2017-10-21T09:27:48.929Z,998.45
2017-10-21T09:28:48.900Z,998.40
2017-10-21T09:29:48.877Z,998.40
2017-10-21T09:30:48.864Z,998.43
2017-10-21T09:31:48.852Z,998.43
2017-10-21T09:32:48.977Z,998.39
2017-10-21T09:33:48.832Z,998.39
2017-10-21T09:34:48.818Z,998.43
2017-10-21T09:35:48.807Z,998.41
2017-10-21T09:36:48.794Z,998.42
2017-10-21T09:37:48.794Z,998.43
2017-10-21T09:38:49.207Z,998.45
2017-10-21T09:39:48.760Z,998.51
2017-10-21T09:40:48.760Z,998.53
2017-10-21T09:41:48.744Z,998.51
2017-10-21T09:42:48.726Z,998.48
2017-10-21T09:43:48.725Z,998.43
2017-10-21T09:44:48.737Z,998.44
2017-10-21T09:45:49.061Z,998.43
2017-10-21T09:46:48.682Z,998.42
2017-10-21T09:47:48.677Z,998.44
2017-10-21T09:48:48.654Z,998.47
2017-10-21T09:49:48.655Z,998.48
2017-10-21T09:50:48.649Z,998.49
2017-10-21T09:51:48.973Z,998.45
2017-10-21T09:52:48.615Z,998.51
2017-10-21T09:53:48.609Z,998.48
2017-10-21T09:54:48.980Z,998.47
2017-10-21T09:55:48.585Z,998.47
2017-10-21T09:56:48.581Z,998.45
2017-10-21T09:57:48.670Z,998.45
2017-10-21T09:58:49.194Z,998.41
2017-10-21T09:59:48.542Z,998.37
2017-10-21T10:00:48.526Z,998.42
2017-10-21T10:01:48.509Z,998.45
2017-10-21T10:02:48.511Z,998.44
2017-10-21T10:03:48.637Z,998.38
2017-10-21T10:04:48.481Z,998.38
2017-10-21T10:05:48.460Z,998.35
2017-10-21T10:06:48.448Z,998.35
2017-10-21T10:07:48.441Z,998.31
2017-10-21T10:08:48.447Z,998.31
2017-10-21T10:09:48.737Z,998.33
2017-10-21T10:10:48.409Z,998.26
2017-10-21T10:11:48.397Z,998.33
2017-10-21T10:12:48.393Z,998.35
2017-10-21T10:13:48.481Z,998.32
2017-10-21T10:14:48.364Z,998.28
2017-10-21T10:15:48.506Z,998.25
2017-10-21T10:16:48.335Z,998.21
2017-10-21T10:17:48.323Z,998.26
2017-10-21T10:18:48.311Z,998.21
2017-10-21T10:19:48.304Z,998.20
2017-10-21T10:20:48.295Z,998.19
2017-10-21T10:21:48.434Z,998.23
2017-10-21T10:22:48.380Z,998.17
2017-10-21T10:23:48.281Z,998.13
2017-10-21T10:24:48.268Z,998.16
2017-10-21T10:25:48.270Z,998.15
2017-10-21T10:26:48.326Z,998.12
2017-10-21T10:27:48.356Z,998.11
2017-10-21T10:28:48.201Z,998.10
2017-10-21T10:29:48.198Z,998.10
2017-10-21T10:30:48.183Z,998.11
2017-10-21T10:31:48.170Z,998.11
2017-10-21T10:32:48.157Z,998.12
2017-10-21T10:33:48.168Z,998.13
2017-10-21T10:34:48.130Z,998.11
2017-10-21T10:35:48.111Z,998.07
2017-10-21T10:36:48.099Z,998.08
2017-10-21T10:37:48.158Z,998.11
2017-10-21T10:38:48.074Z,998.12
2017-10-21T10:39:48.072Z,998.13
2017-10-21T10:40:48.052Z,998.08
2017-10-21T10:41:48.058Z,998.12
2017-10-21T10:42:48.025Z,998.09
2017-10-21T10:43:48.060Z,998.13
2017-10-21T10:44:48.003Z,998.13
2017-10-21T10:45:47.998Z,998.10
2017-10-21T10:46:48.115Z,998.10
2017-10-21T10:47:47.974Z,998.09
2017-10-21T10:48:47.965Z,998.07
2017-10-21T10:49:47.996Z,998.06
2017-10-21T10:50:47.939Z,998.11
2017-10-21T10:51:47.919Z,998.09
2017-10-21T10:52:47.910Z,998.14
2017-10-21T10:53:47.901Z,998.11
2017-10-21T10:54:47.907Z,998.12
2017-10-21T10:55:47.990Z,998.04
2017-10-21T10:56:47.883Z,998.08
2017-10-21T10:57:48.194Z,998.08
2017-10-21T10:58:47.857Z,998.06
2017-10-21T10:59:47.836Z,998.03
2017-10-21T11:00:47.827Z,998.07
2017-10-21T11:01:47.831Z,998.07
2017-10-21T11:02:47.798Z,998.07
2017-10-21T11:03:47.922Z,998.05
2017-10-21T11:04:47.773Z,998.05
2017-10-21T11:05:47.762Z,998.03
2017-10-21T11:06:47.746Z,998.04
2017-10-21T11:07:47.736Z,998.05
2017-10-21T11:08:47.726Z,997.98
2017-10-21T11:09:47.790Z,997.99
2017-10-21T11:10:47.696Z,998.03
2017-10-21T11:11:47.693Z,998.03
2017-10-21T11:12:47.704Z,998.05
2017-10-21T11:13:47.663Z,998.06
2017-10-21T11:14:47.662Z,998.05
2017-10-21T11:15:47.677Z,998.01
2017-10-21T11:16:47.658Z,998.04
2017-10-21T11:17:47.615Z,998.01
2017-10-21T11:18:47.605Z,997.99
2017-10-21T11:22:52.654Z,997.99
2017-10-21T11:23:52.605Z,998.00
2017-10-21T11:24:52.632Z,998.00
2017-10-21T11:25:52.133Z,997.98
2017-10-21T11:26:52.687Z,998.03
2017-10-21T11:27:52.607Z,997.99
2017-10-21T11:28:52.120Z,998.00
2017-10-21T11:53:49.126Z,998.03
2017-10-21T11:54:48.931Z,997.99
2017-10-21T11:55:48.917Z,997.91
2017-10-21T11:56:49.725Z,997.93
2017-10-21T11:57:49.666Z,997.85
2017-10-21T11:58:48.876Z,997.86
2017-10-21T11:59:49.293Z,997.83
2017-10-21T12:00:49.472Z,997.86
2017-10-21T12:01:48.837Z,997.89
2017-10-21T12:02:48.821Z,997.88
2017-10-21T12:03:48.808Z,997.93
2017-10-21T12:04:48.848Z,997.88
2017-10-21T12:05:49.015Z,997.94
2017-10-21T12:06:48.770Z,997.93
2017-10-21T12:07:48.791Z,997.96
2017-10-21T12:08:48.855Z,997.91
2017-10-21T12:09:48.746Z,997.91
2017-10-21T12:10:48.756Z,997.93
2017-10-21T12:11:49.096Z,997.89
2017-10-21T12:12:50.045Z,997.92
2017-10-21T12:16:59.020Z,997.86
2017-10-21T12:17:57.834Z,997.86
2017-10-21T12:18:57.524Z,997.88
2017-10-21T12:19:58.321Z,997.88
2017-10-21T12:20:58.180Z,997.86
2017-10-21T12:21:57.455Z,997.89
2017-10-21T12:22:57.530Z,997.88
2017-10-21T12:23:57.442Z,997.88
2017-10-21T12:24:57.416Z,997.85
2017-10-21T12:25:57.404Z,997.83
2017-10-21T12:26:57.389Z,997.83
2017-10-21T12:27:57.377Z,997.80
2017-10-21T12:28:57.598Z,997.84
2017-10-21T12:29:57.541Z,997.84
2017-10-21T12:30:57.377Z,997.81
2017-10-21T12:31:59.194Z,997.85
2017-10-21T12:32:57.494Z,997.79
2017-10-21T12:33:57.317Z,997.78
2017-10-21T12:34:57.403Z,997.82
2017-10-21T12:35:57.290Z,997.80
2017-10-21T12:36:57.579Z,997.80
2017-10-21T12:37:57.344Z,997.81
2017-10-21T12:38:57.282Z,997.79
2017-10-21T12:39:57.240Z,997.79
2017-10-21T12:40:57.297Z,997.75
2017-10-21T12:41:57.216Z,997.77
2017-10-21T12:42:57.490Z,997.77
2017-10-21T12:43:57.189Z,997.74
2017-10-21T12:44:57.183Z,997.80
2017-10-21T12:45:57.173Z,997.76
2017-10-21T12:46:57.232Z,997.73
2017-10-21T12:47:57.142Z,997.73
2017-10-21T12:48:57.771Z,997.74
2017-10-21T12:49:57.122Z,997.75
2017-10-21T12:50:57.143Z,997.69
2017-10-21T12:51:57.099Z,997.65
2017-10-21T12:52:57.087Z,997.69
2017-10-21T12:53:57.078Z,997.65
2017-10-21T12:54:57.576Z,997.65
2017-10-21T12:55:57.133Z,997.65
2017-10-21T12:56:57.045Z,997.64
2017-10-21T12:57:57.201Z,997.68
2017-10-21T12:58:57.017Z,997.69
2017-10-21T12:59:57.080Z,997.67
2017-10-21T13:00:56.996Z,997.61
2017-10-21T13:01:57.359Z,997.62
2017-10-21T13:02:56.988Z,997.58
2017-10-21T13:03:56.955Z,997.64
2017-10-21T13:04:56.943Z,997.61
2017-10-21T13:05:56.942Z,997.62
2017-10-21T13:06:56.960Z,997.68
2017-10-21T13:07:56.982Z,997.69
2017-10-21T13:08:57.041Z,997.69
2017-10-21T13:09:56.899Z,997.72
2017-10-21T13:10:56.925Z,997.69
2017-10-21T13:11:56.901Z,997.68
2017-10-21T13:12:56.901Z,997.66
2017-10-21T13:13:57.489Z,997.64
2017-10-21T13:14:56.822Z,997.62
2017-10-21T13:15:56.846Z,997.60
2017-10-21T13:16:56.804Z,997.58
2017-10-21T13:17:56.885Z,997.62
2017-10-21T13:18:56.797Z,997.63
2017-10-21T13:19:57.074Z,997.56